Time;durP1;ratioP1;P1;durP2;ratioP2;P2;SDS_P1;SDS_P2;PMS_P1;PMS_P2;Temp;Humidity;BMP_temperature;BMP_pressure;BME280_temperature;BME280_humidity;BME280_pressure;Samples;Min_cycle;Max_cycle;Signal;HPM_P1;HPM_P2
2022/08/14 00:00:41;;;;;;;5.45;1.90;;;;;;;16.73;61.18;98573.63;5130656;27;20043;-76
2022/08/14 00:03:18;;;;;;;2.53;1.55;;;;;;;16.65;61.39;98555.63;5130588;27;20047;-77
2022/08/14 00:05:45;;;;;;;4.82;1.80;;;;;;;16.85;61.60;98588.16;5126268;27;20039;-76
2022/08/14 00:08:11;;;;;;;2.35;1.90;;;;;;;16.83;61.57;98571.13;5129105;27;20051;-76
2022/08/14 00:10:38;;;;;;;3.00;1.80;;;;;;;16.70;61.87;98572.19;5128256;27;20533;-77
2022/08/14 00:13:05;;;;;;;5.95;2.25;;;;;;;16.68;62.09;98565.25;5127295;27;20050;-76
2022/08/14 00:15:35;;;;;;;5.78;2.40;;;;;;;16.49;62.86;98562.63;5127249;27;20119;-77
2022/08/14 00:18:05;;;;;;;1.98;1.77;;;;;;;16.49;63.66;98554.41;5129016;27;20053;-77
2022/08/14 00:20:34;;;;;;;;;;;;;;;16.54;63.46;98572.91;5118744;27;20052;-76
2022/08/14 00:23:01;;;;;;;3.45;2.00;;;;;;;16.49;63.72;98562.63;5123326;27;19923;-76
2022/08/14 00:25:28;;;;;;;3.22;2.28;;;;;;;16.37;63.82;98546.19;5123023;27;20406;-76
2022/08/14 00:27:55;;;;;;;2.50;2.15;;;;;;;16.26;64.98;98549.75;5126092;27;20062;-76
2022/08/14 00:30:22;;;;;;;2.83;1.92;;;;;;;16.21;65.22;98560.59;5126515;27;20051;-76
2022/08/14 00:32:49;;;;;;;2.42;1.90;;;;;;;16.20;65.31;98528.75;5118449;27;20051;-77
2022/08/14 00:35:15;;;;;;;4.63;2.35;;;;;;;16.30;64.32;98526.25;5120454;27;20478;-76
2022/08/14 00:37:45;;;;;;;4.25;2.30;;;;;;;16.37;65.07;98545.34;5124702;27;20744;-76
2022/08/14 00:40:13;;;;;;;;;;;;;;;16.35;65.24;98542.00;5115218;27;20047;-76
2022/08/14 00:42:39;;;;;;;3.63;2.28;;;;;;;16.24;64.57;98502.53;5127550;27;20385;-76
2022/08/14 00:45:09;;;;;;;4.55;2.03;;;;;;;16.32;65.55;98536.97;5130594;27;20066;-76
2022/08/14 00:47:35;;;;;;;2.35;1.95;;;;;;;16.07;65.74;98500.47;5128481;27;20039;-76
2022/08/14 00:50:03;;;;;;;2.80;2.25;;;;;;;15.99;66.25;98491.75;5130459;27;20373;-76
2022/08/14 00:52:30;;;;;;;3.80;1.92;;;;;;;16.02;67.28;98516.00;5121862;27;20039;-76
2022/08/14 00:54:59;;;;;;;3.08;2.20;;;;;;;15.97;67.38;98513.09;5129834;27;20047;-76
2022/08/14 00:57:28;;;;;;;2.90;2.40;;;;;;;15.89;67.58;98503.31;5124212;27;20062;-76
2022/08/14 00:59:55;;;;;;;2.40;2.10;;;;;;;15.78;67.88;98502.25;5129923;27;20047;-76
2022/08/14 01:02:23;;;;;;;2.67;2.17;;;;;;;15.78;67.69;98494.00;5132196;27;20050;-76
2022/08/14 01:04:51;;;;;;;4.07;1.88;;;;;;;15.78;67.70;98482.19;5120695;27;20075;-76
2022/08/14 01:07:19;;;;;;;5.32;2.10;;;;;;;15.63;68.43;98491.69;5132701;27;20062;-76
2022/08/14 01:09:48;;;;;;;4.60;2.20;;;;;;;15.77;66.54;98480.53;5129278;27;20490;-76
2022/08/14 01:12:17;;;;;;;2.80;2.15;;;;;;;15.60;66.56;98483.94;5126025;27;20479;-76
2022/08/14 01:14:44;;;;;;;5.25;1.95;;;;;;;15.57;66.74;98503.59;5130594;27;20050;-76
2022/08/14 01:17:13;;;;;;;4.00;2.00;;;;;;;15.47;66.97;98503.31;5130592;27;20062;-76
2022/08/14 01:22:26;;;;;;;7.53;2.20;;;;;;;15.49;67.50;98520.34;5127980;27;20054;-76
2022/08/14 01:24:52;;;;;;;2.85;2.08;;;;;;;15.37;67.21;98506.59;5125694;27;20391;-76
2022/08/14 01:27:22;;;;;;;3.05;1.85;;;;;;;15.54;65.92;98493.09;5130756;27;20047;-77
2022/08/14 01:29:50;;;;;;;4.28;2.17;;;;;;;15.62;64.92;98522.06;5124058;27;20066;-76
2022/08/14 01:32:17;;;;;;;4.93;2.40;;;;;;;15.50;65.96;98519.28;5127926;27;20039;-76
2022/08/14 01:34:44;;;;;;;5.32;2.03;;;;;;;15.39;67.40;98521.72;5131668;27;20047;-77
2022/08/14 01:37:10;;;;;;;3.47;2.30;;;;;;;15.21;68.95;98528.06;5125627;27;20122;-77
2022/08/14 01:39:38;;;;;;;2.33;2.13;;;;;;;14.93;69.76;98505.91;5128641;27;20490;-76
2022/08/14 01:42:05;;;;;;;5.47;2.40;;;;;;;14.95;70.52;98528.41;5121607;27;20410;-76
2022/08/14 01:44:32;;;;;;;3.75;2.33;;;;;;;14.78;71.14;98500.81;5130322;27;20061;-76
2022/08/14 01:47:00;;;;;;;3.88;2.42;;;;;;;15.08;70.45;98516.47;5129238;27;20054;-76
2022/08/14 01:49:27;;;;;;;2.95;2.22;;;;;;;15.19;69.49;98502.84;5119466;27;20043;-76
2022/08/14 01:51:55;;;;;;;4.45;2.30;;;;;;;15.12;69.32;98491.13;5123281;27;20043;-76
2022/08/14 01:54:24;;;;;;;3.15;2.20;;;;;;;14.96;69.85;98486.28;5117065;27;20430;-76
2022/08/14 01:56:55;;;;;;;2.70;2.30;;;;;;;14.89;70.27;98472.72;5127665;27;20047;-76
2022/08/14 01:59:27;;;;;;;3.35;2.30;;;;;;;14.91;70.11;98464.25;5123686;27;20107;-76
2022/08/14 02:01:55;;;;;;;2.90;1.90;;;;;;;14.93;71.41;98509.47;5129225;27;20126;-76
2022/08/14 02:04:24;;;;;;;2.20;2.00;;;;;;;14.96;70.66;98478.91;5130496;27;20035;-76
2022/08/14 02:06:51;;;;;;;2.50;2.20;;;;;;;14.97;70.91;98463.34;5131706;27;20047;-76
2022/08/14 02:09:20;;;;;;;4.85;2.53;;;;;;;14.79;71.82;98475.16;5128285;27;20035;-76
2022/08/14 02:11:46;;;;;;;2.75;2.40;;;;;;;14.49;72.55;98448.53;5117076;27;20112;-76
2022/08/14 02:14:14;;;;;;;3.15;2.45;;;;;;;14.72;71.71;98450.59;5127284;27;20043;-76
2022/08/14 02:16:46;;;;;;;4.72;2.25;;;;;;;14.69;70.61;98438.22;5130791;27;20512;-76
2022/08/14 02:19:16;;;;;;;5.40;2.05;;;;;;;15.08;70.21;98467.19;5121378;27;20039;-76
2022/08/14 02:21:45;;;;;;;2.35;2.10;;;;;;;14.94;70.02;98442.75;5131087;27;20049;-76
2022/08/14 02:24:14;;;;;;;2.40;2.20;;;;;;;14.79;71.06;98453.25;5129344;27;20051;-76
2022/08/14 02:26:46;;;;;;;2.92;2.38;;;;;;;14.83;71.66;98493.59;5128990;27;20082;-76
2022/08/14 02:29:22;;;;;;;2.53;2.08;;;;;;;14.69;71.35;98467.47;5121213;28;20508;-76
2022/08/14 02:31:51;;;;;;;2.35;2.13;;;;;;;14.84;71.64;98478.00;5122461;28;20058;-76
2022/08/14 02:34:20;;;;;;;8.37;2.27;;;;;;;14.80;70.34;98487.78;5129646;28;20047;-76
2022/08/14 02:36:50;;;;;;;2.33;2.03;;;;;;;14.96;70.10;98487.13;5123444;28;20043;-76
2022/08/14 02:39:16;;;;;;;2.35;2.10;;;;;;;14.73;69.98;98455.00;5123359;27;20433;-76
2022/08/14 02:41:47;;;;;;;2.88;2.13;;;;;;;14.67;70.95;98473.16;5131223;28;20055;-76
2022/08/14 02:44:17;;;;;;;;;;;;;;;14.60;72.43;98486.06;5113632;28;20039;-76
2022/08/14 02:46:44;;;;;;;3.10;2.42;;;;;;;14.51;74.11;98477.31;5130825;28;19925;-76
2022/08/14 02:49:11;;;;;;;4.53;2.33;;;;;;;14.34;75.03;98446.16;5128385;27;20074;-76
2022/08/14 02:51:38;;;;;;;3.88;2.58;;;;;;;14.31;75.81;98452.91;5128711;28;20047;-76
2022/08/14 02:54:07;;;;;;;4.20;2.30;;;;;;;14.21;76.86;98443.56;5125368;28;20036;-76
2022/08/14 02:56:37;;;;;;;3.20;2.50;;;;;;;14.24;77.40;98451.31;5120760;28;20494;-76
2022/08/14 02:59:05;;;;;;;;;;;;;;;14.35;76.72;98442.38;5131253;28;20043;-76
2022/08/14 03:01:34;;;;;;;2.58;2.38;;;;;;;14.28;76.28;98428.75;5121314;28;20304;-76
2022/08/14 03:04:03;;;;;;;5.47;2.40;;;;;;;14.18;75.84;98409.31;5127480;28;20402;-76
2022/08/14 03:06:29;;;;;;;3.67;2.40;;;;;;;14.12;76.82;98430.19;5129049;28;20075;-76
2022/08/14 03:08:57;;;;;;;2.88;2.38;;;;;;;14.25;76.08;98425.66;5125250;27;20043;-76
2022/08/14 03:11:25;;;;;;;3.40;2.13;;;;;;;14.26;75.89;98411.75;5114249;28;20495;-76
2022/08/14 03:13:52;;;;;;;5.13;2.58;;;;;;;14.38;75.83;98403.63;5123029;28;20054;-76
2022/08/14 03:16:20;;;;;;;4.28;2.30;;;;;;;14.26;76.19;98400.81;5129812;28;20055;-76
2022/08/14 03:18:52;;;;;;;7.85;3.30;;;;;;;14.45;76.28;98428.16;5120907;28;20047;-76
2022/08/14 03:21:20;;;;;;;6.00;2.60;;;;;;;14.19;76.33;98397.31;5122492;28;20518;-76
2022/08/14 03:23:50;;;;;;;4.05;2.40;;;;;;;14.39;76.49;98419.00;5119187;28;20494;-76
2022/08/14 03:26:18;;;;;;;4.00;2.50;;;;;;;14.29;75.48;98394.91;5128351;28;20090;-75
2022/08/14 03:28:46;;;;;;;3.47;2.38;;;;;;;14.34;76.28;98411.44;5113326;28;20043;-76
2022/08/14 03:31:13;;;;;;;3.40;2.55;;;;;;;14.30;76.93;98415.72;5124582;28;20121;-76
2022/08/14 03:33:41;;;;;;;3.90;2.47;;;;;;;14.10;77.74;98409.63;5129798;28;20430;-76
2022/08/14 03:36:13;;;;;;;5.28;2.25;;;;;;;14.01;78.11;98395.41;5128572;28;20046;-76
2022/08/14 03:38:42;;;;;;;3.92;2.90;;;;;;;13.94;79.17;98409.16;5117916;28;20503;-76
2022/08/14 03:41:13;;;;;;;2.85;2.38;;;;;;;13.76;79.82;98399.03;5123711;28;20051;-76
2022/08/14 03:43:39;;;;;;;2.75;2.35;;;;;;;13.72;80.42;98405.97;5130762;27;20082;-76
2022/08/14 03:46:06;;;;;;;4.15;2.70;;;;;;;13.95;79.87;98420.91;5133610;27;20050;-76
2022/08/14 03:48:33;;;;;;;4.75;2.55;;;;;;;13.78;80.55;98396.88;5134384;27;20051;-76
2022/08/14 03:50:59;;;;;;;4.05;2.28;;;;;;;13.79;80.48;98395.84;5125267;27;20043;-76
2022/08/14 03:53:27;;;;;;;2.30;2.10;;;;;;;13.69;80.06;98389.22;5131432;27;20058;-76
2022/08/14 03:55:55;;;;;;;2.65;2.33;;;;;;;13.53;80.82;98379.69;5128969;27;20050;-76
2022/08/14 03:58:22;;;;;;;3.35;2.45;;;;;;;13.75;80.27;98400.06;5134014;27;20043;-76
2022/08/14 04:00:49;;;;;;;3.88;2.80;;;;;;;13.58;80.52;98366.22;5132056;27;20055;-76
2022/08/14 04:03:16;;;;;;;3.00;2.53;;;;;;;13.69;80.52;98390.03;5132283;27;20043;-76
2022/08/14 04:05:42;;;;;;;3.40;2.55;;;;;;;13.39;81.61;98371.59;5125304;27;20049;-76
2022/08/14 04:08:09;;;;;;;3.35;2.70;;;;;;;13.42;81.50;98375.78;5127173;27;20066;-76
2022/08/14 04:10:37;;;;;;;3.55;2.30;;;;;;;13.44;81.90;98396.34;5127963;27;20050;-76
2022/08/14 04:13:05;;;;;;;3.85;2.80;;;;;;;13.41;81.60;98387.75;5131611;27;20120;-76
2022/08/14 04:15:31;;;;;;;2.55;2.30;;;;;;;13.45;80.87;98373.44;5128338;27;20056;-76
2022/08/14 04:18:03;;;;;;;5.10;2.67;;;;;;;13.48;81.01;98366.72;5134305;27;20058;-76
2022/08/14 04:20:30;;;;;;;3.85;2.55;;;;;;;13.43;80.86;98356.44;5118021;27;20051;-76
2022/08/14 04:22:56;;;;;;;3.53;2.70;;;;;;;13.38;82.68;98382.75;5131583;27;20043;-76
2022/08/14 04:25:23;;;;;;;3.95;2.47;;;;;;;13.26;83.56;98383.44;5121931;27;20063;-76
2022/08/14 04:27:51;;;;;;;7.00;2.72;;;;;;;13.50;82.92;98407.44;5133208;27;20086;-76
2022/08/14 04:30:18;;;;;;;2.88;2.50;;;;;;;13.56;81.92;98390.97;5124504;27;20050;-76
2022/08/14 04:32:44;;;;;;;4.93;2.50;;;;;;;13.58;80.36;98398.97;5132755;27;20051;-76
2022/08/14 04:35:11;;;;;;;6.15;2.50;;;;;;;13.26;83.07;98367.06;5124092;27;20043;-76
2022/08/14 04:45:51;;;;;;;3.63;2.53;;;;;;;13.18;84.63;98355.59;5123581;27;20045;-76
2022/08/14 04:48:19;;;;;;;3.63;2.90;;;;;;;13.33;84.19;98358.81;5133196;27;20043;-76
2022/08/14 04:50:48;;;;;;;3.10;2.63;;;;;;;13.55;85.10;98400.25;5128524;27;20057;-76
2022/08/14 04:53:16;;;;;;;5.90;3.22;;;;;;;13.66;84.42;98395.13;5125764;27;20047;-76
2022/08/14 04:55:46;;;;;;;8.20;2.90;;;;;;;13.74;83.53;98365.63;5122810;27;20054;-76
2022/08/14 04:58:14;;;;;;;3.78;2.88;;;;;;;13.90;83.56;98377.88;5124901;27;20047;-76
2022/08/14 05:00:41;;;;;;;5.32;3.28;;;;;;;13.91;81.99;98376.81;5125000;27;20055;-76
2022/08/14 05:03:08;;;;;;;3.65;2.83;;;;;;;13.99;82.09;98381.97;5132135;27;20058;-76
2022/08/14 05:05:34;;;;;;;6.07;2.85;;;;;;;14.02;80.38;98372.50;5131126;27;20066;-76
2022/08/14 05:08:07;;;;;;;4.10;3.08;;;;;;;14.25;78.32;98384.66;5123919;27;20050;-76
2022/08/14 05:10:35;;;;;;;3.10;2.83;;;;;;;14.32;76.55;98401.81;5123676;27;20043;-76
2022/08/14 05:13:04;;;;;;;3.92;2.80;;;;;;;14.27;76.63;98390.72;5130828;27;20505;-76
2022/08/14 05:15:35;;;;;;;4.85;2.70;;;;;;;14.37;76.85;98387.47;5128956;27;20394;-78
2022/08/14 05:18:03;;;;;;;4.75;2.83;;;;;;;14.43;77.65;98370.97;5132549;27;20070;-78
2022/08/14 05:20:30;;;;;;;3.42;2.60;;;;;;;14.41;78.89;98372.28;5116175;27;20531;-77
2022/08/14 05:22:58;;;;;;;3.10;2.78;;;;;;;14.52;79.09;98380.53;5119164;27;20092;-77
2022/08/14 05:25:24;;;;;;;3.30;2.70;;;;;;;14.69;78.40;98388.97;5120605;27;20062;-78
2022/08/14 05:27:51;;;;;;;3.17;2.70;;;;;;;14.69;78.25;98383.50;5125056;27;20549;-78
2022/08/14 05:30:18;;;;;;;4.28;3.13;;;;;;;14.90;78.51;98405.13;5125328;27;20042;-78
2022/08/14 05:32:46;;;;;;;3.28;2.58;;;;;;;15.13;78.10;98407.94;5120804;27;20549;-78
2022/08/14 05:35:13;;;;;;;7.00;3.58;;;;;;;15.23;78.01;98385.47;5128318;27;20125;-78
2022/08/14 05:37:40;;;;;;;4.82;3.05;;;;;;;15.29;76.19;98368.09;5118477;27;20047;-78
2022/08/14 05:40:09;;;;;;;4.07;3.42;;;;;;;15.25;76.62;98368.81;5124889;27;20053;-78
2022/08/14 05:42:36;;;;;;;5.85;3.17;;;;;;;15.46;78.04;98390.19;5109593;27;20097;-78
2022/08/14 05:45:05;;;;;;;7.05;3.28;;;;;;;15.53;77.75;98387.31;5122338;27;20391;-78
2022/08/14 05:47:38;;;;;;;6.40;3.10;;;;;;;15.63;76.89;98376.63;5123839;27;20059;-78
2022/08/14 05:50:08;;;;;;;4.43;3.38;;;;;;;16.03;75.84;98399.75;5119226;27;20781;-78
2022/08/14 05:52:34;;;;;;;4.30;3.35;;;;;;;16.06;74.08;98374.59;5121270;27;20058;-77
2022/08/14 05:55:02;;;;;;;10.98;3.30;;;;;;;16.41;72.12;98381.94;5120725;27;20407;-77
2022/08/14 05:57:29;;;;;;;8.55;3.55;;;;;;;16.71;71.20;98375.41;5125407;27;20051;-78
2022/08/14 05:59:56;;;;;;;4.85;2.88;;;;;;;17.15;68.91;98362.00;5110232;27;20133;-78
2022/08/14 06:02:22;;;;;;;3.92;2.92;;;;;;;17.63;66.35;98388.09;5114449;27;20055;-78
2022/08/14 06:04:49;;;;;;;3.90;3.20;;;;;;;17.93;65.33;98386.94;5113902;27;20039;-78
2022/08/14 06:07:17;;;;;;;4.03;3.30;;;;;;;18.03;62.56;98362.31;5113476;27;20039;-78
2022/08/14 06:09:44;;;;;;;3.30;3.00;;;;;;;18.57;60.52;98369.09;5121321;27;20075;-78
2022/08/14 06:12:11;;;;;;;5.60;3.53;;;;;;;18.99;58.37;98374.00;5128934;27;20103;-78
2022/08/14 06:14:38;;;;;;;4.35;3.90;;;;;;;19.28;57.04;98354.44;5121782;27;20130;-78
2022/08/14 06:17:04;;;;;;;3.90;3.25;;;;;;;19.55;54.88;98343.38;5123500;27;20043;-77
2022/08/14 06:19:31;;;;;;;5.70;3.42;;;;;;;20.10;53.53;98332.22;5115572;27;20051;-77
2022/08/14 06:21:58;;;;;;;6.05;3.08;;;;;;;20.40;52.75;98361.03;5116376;27;20062;-78
2022/08/14 06:24:26;;;;;;;8.13;3.63;;;;;;;20.36;52.23;98352.47;5124027;27;20051;-78
2022/08/14 06:26:53;;;;;;;3.85;3.00;;;;;;;20.47;51.85;98340.41;5126016;27;20050;-78
2022/08/14 06:29:19;;;;;;;3.80;3.38;;;;;;;21.32;50.50;98369.63;5122556;28;20043;-78
2022/08/14 06:31:46;;;;;;;3.47;2.92;;;;;;;21.06;50.26;98341.13;5119484;28;20510;-78
2022/08/14 06:34:13;;;;;;;5.38;3.28;;;;;;;21.36;50.13;98347.78;5109399;28;20047;-78
2022/08/14 06:36:40;;;;;;;4.10;3.00;;;;;;;21.14;50.12;98321.25;5109948;28;20051;-78
2022/08/14 06:39:07;;;;;;;2.90;2.60;;;;;;;21.02;50.77;98327.03;5110022;28;20070;-78
2022/08/14 06:41:35;;;;;;;6.38;3.00;;;;;;;21.10;50.50;98303.56;5110775;28;20486;-78
2022/08/14 06:44:02;;;;;;;6.05;3.00;;;;;;;21.27;50.11;98330.91;5109190;28;20047;-78
2022/08/14 06:46:29;;;;;;;6.78;2.47;;;;;;;21.35;48.27;98326.81;5117820;28;20048;-78
2022/08/14 06:48:56;;;;;;;5.32;2.05;;;;;;;21.41;47.82;98295.28;5119083;28;20043;-78
2022/08/14 06:51:23;;;;;;;2.83;2.35;;;;;;;21.53;47.53;98292.25;5116002;28;20418;-78
2022/08/14 06:53:49;;;;;;;6.32;2.30;;;;;;;21.59;48.30;98304.13;5117366;28;20509;-78
2022/08/14 06:56:16;;;;;;;3.58;2.15;;;;;;;21.77;48.07;98299.97;5110814;28;20048;-78
2022/08/14 06:58:44;;;;;;;5.95;2.47;;;;;;;21.98;47.82;98289.66;5116873;28;20062;-78
2022/08/14 07:06:40;;;;;;;3.08;2.78;;;;;;;22.47;46.72;98297.28;5117123;28;20087;-79
2022/08/14 07:09:06;;;;;;;2.35;2.15;;;;;;;22.97;45.05;98270.41;5115824;28;20117;-78
2022/08/14 07:11:33;;;;;;;8.02;2.33;;;;;;;23.38;43.94;98297.00;5122765;28;20067;-78
2022/08/14 07:14:01;;;;;;;4.25;2.72;;;;;;;23.43;44.02;98288.63;5113294;27;20051;-79
2022/08/14 07:16:28;;;;;;;2.55;2.35;;;;;;;23.67;43.58;98290.63;5117949;27;20058;-78
2022/08/14 07:18:55;;;;;;;2.92;2.08;;;;;;;23.70;43.74;98295.59;5116221;27;20054;-79
2022/08/14 07:21:21;;;;;;;7.72;2.60;;;;;;;24.08;43.41;98286.63;5123604;27;20343;-78
2022/08/14 07:23:48;;;;;;;2.67;2.28;;;;;;;24.18;42.82;98278.19;5116919;27;20059;-79
2022/08/14 07:26:15;;;;;;;4.97;2.33;;;;;;;24.52;42.07;98289.16;5120668;27;20043;-79
2022/08/14 07:28:42;;;;;;;3.88;2.80;;;;;;;24.48;41.86;98257.53;5123233;27;20043;-79
2022/08/14 07:31:12;;;;;;;6.45;2.17;;;;;;;24.52;41.24;98275.25;5123830;27;20098;-78
2022/08/14 07:33:40;;;;;;;4.20;2.30;;;;;;;24.74;40.90;98276.66;5124546;27;20043;-79
2022/08/14 07:36:10;;;;;;;2.25;2.05;;;;;;;25.11;41.00;98290.81;5117672;27;20483;-78
2022/08/14 07:38:39;;;;;;;2.72;2.30;;;;;;;24.88;41.16;98285.06;5129761;27;20068;-78
2022/08/14 07:41:07;;;;;;;4.67;2.10;;;;;;;24.79;40.91;98295.19;5127127;27;20052;-78
2022/08/14 07:43:34;;;;;;;3.72;2.60;;;;;;;24.74;40.79;98276.66;5124988;27;20659;-78
2022/08/14 07:46:01;;;;;;;4.20;2.47;;;;;;;24.57;40.77;98268.81;5115265;27;20043;-78
2022/08/14 07:48:28;;;;;;;4.32;2.15;;;;;;;25.06;40.70;98295.34;5119792;27;20055;-78
2022/08/14 07:50:55;;;;;;;4.10;2.60;;;;;;;24.89;40.36;98307.00;5123911;27;20495;-78
2022/08/14 07:53:22;;;;;;;2.67;2.30;;;;;;;24.99;40.67;98292.13;5119068;27;20047;-78
2022/08/14 07:55:49;;;;;;;8.60;2.35;;;;;;;24.95;40.08;98279.94;5122186;27;20470;-78
2022/08/14 07:58:17;;;;;;;3.85;1.98;;;;;;;24.95;40.00;98301.38;5117805;27;20051;-78
2022/08/14 08:00:44;;;;;;;4.28;2.30;;;;;;;25.01;40.03;98305.72;5114095;27;20097;-78
2022/08/14 08:03:12;;;;;;;2.45;2.25;;;;;;;25.01;40.27;98278.75;5118825;27;20051;-78
2022/08/14 08:05:41;;;;;;;5.32;1.98;;;;;;;25.09;39.75;98296.69;5117309;27;20043;-78
2022/08/14 08:08:08;;;;;;;5.13;2.67;;;;;;;24.75;39.99;98292.19;5115168;27;20471;-78
2022/08/14 08:10:38;;;;;;;2.13;1.75;;;;;;;24.87;39.65;98278.69;5126856;27;20058;-78
2022/08/14 08:13:07;;;;;;;5.03;2.13;;;;;;;25.26;39.81;98310.88;5119978;27;20043;-78
2022/08/14 08:15:35;;;;;;;2.23;1.87;;;;;;;25.10;38.80;98292.78;5128456;27;20047;-78
2022/08/14 08:18:04;;;;;;;3.17;2.22;;;;;;;25.16;38.85;98299.91;5129229;27;20054;-79
2022/08/14 08:20:32;;;;;;;3.13;2.20;;;;;;;25.54;39.78;98313.78;5123394;27;20054;-81
2022/08/14 08:23:00;;;;;;;5.72;2.30;;;;;;;25.21;38.89;98283.16;5123755;27;20054;-78
2022/08/14 08:25:29;;;;;;;4.38;2.05;;;;;;;25.18;39.20;98280.97;5134672;27;20046;-78
2022/08/14 08:27:57;;;;;;;4.38;2.03;;;;;;;25.37;38.93;98274.59;5127041;27;20054;-79
2022/08/14 08:30:24;;;;;;;2.47;2.15;;;;;;;25.25;39.01;98270.28;5124612;27;20047;-78
2022/08/14 08:32:53;;;;;;;5.85;2.28;;;;;;;25.54;40.53;98288.75;5116930;27;20051;-78
2022/08/14 08:35:22;;;;;;;5.70;2.13;;;;;;;25.73;38.62;98276.72;5121245;27;20044;-78
2022/08/14 08:37:49;;;;;;;2.50;1.80;;;;;;;25.63;38.43;98272.19;5120078;27;20051;-78
2022/08/14 08:40:27;;;;;;;4.78;1.92;;;;;;;25.65;38.59;98264.34;5121370;27;20043;-78
2022/08/14 08:42:54;;;;;;;2.03;1.83;;;;;;;25.54;38.11;98279.59;5119499;27;20049;-78
2022/08/14 08:45:22;;;;;;;1.90;1.75;;;;;;;25.68;38.26;98262.91;5120809;27;20502;-78
2022/08/14 08:47:50;;;;;;;2.45;1.88;;;;;;;25.81;37.74;98278.00;5126979;27;20551;-78
2022/08/14 08:50:29;;;;;;;4.32;1.88;;;;;;;25.86;38.05;98273.13;5124038;27;20054;-78
2022/08/14 08:52:57;;;;;;;2.65;2.15;;;;;;;25.60;38.34;98256.09;5119011;27;20125;-78
2022/08/14 08:55:31;;;;;;;2.90;2.10;;;;;;;25.84;38.39;98253.16;5128866;27;20047;-78
2022/08/14 08:58:00;;;;;;;6.53;2.08;;;;;;;26.01;37.47;98263.69;5112269;27;20510;-78
2022/08/14 09:00:32;;;;;;;2.83;1.97;;;;;;;26.15;37.39;98260.94;5112280;27;20431;-78
2022/08/14 09:03:04;;;;;;;3.85;2.10;;;;;;;26.08;37.56;98250.19;5122637;27;20402;-78
2022/08/14 09:05:32;;;;;;;4.82;2.03;;;;;;;26.13;37.15;98225.00;5120555;27;20353;-78
2022/08/14 09:08:14;;;;;;;2.33;1.75;;;;;;;26.36;36.93;98219.53;5122567;27;20043;-78
2022/08/14 09:10:42;;;;;;;6.95;3.45;;;;;;;26.55;35.99;98221.34;5125108;27;20063;-78
2022/08/14 09:13:11;;;;;;;1.77;1.63;;;;;;;26.78;36.29;98223.06;5120277;27;20047;-78
2022/08/14 09:15:39;;;;;;;2.70;1.63;;;;;;;26.90;35.63;98211.34;5126859;27;20048;-78
2022/08/14 09:18:06;;;;;;;2.25;1.80;;;;;;;27.15;35.05;98223.84;5124522;27;20054;-79
2022/08/14 09:20:33;;;;;;;3.47;2.80;;;;;;;27.22;35.81;98203.88;5125634;27;20066;-78
2022/08/14 09:23:00;;;;;;;6.78;1.77;;;;;;;27.28;34.30;98202.59;5125604;27;20047;-79
2022/08/14 09:25:26;;;;;;;5.10;1.60;;;;;;;27.45;33.71;98207.47;5125910;27;20051;-79
2022/08/14 09:27:55;;;;;;;2.97;1.45;;;;;;;27.62;32.56;98198.38;5126483;27;20043;-79
2022/08/14 09:30:22;;;;;;;4.10;1.60;;;;;;;27.88;32.92;98214.41;5121100;27;20046;-79
2022/08/14 09:33:03;;;;;;;2.63;1.80;;;;;;;27.96;32.39;98199.69;5125791;27;20082;-79
2022/08/14 09:35:42;;;;;;;2.42;1.60;;;;;;;27.94;32.09;98187.97;5122033;27;20054;-79
2022/08/14 09:38:19;;;;;;;1.70;1.60;;;;;;;28.17;31.71;98185.09;5129588;27;20050;-78
2022/08/14 09:40:58;;;;;;;4.03;1.58;;;;;;;28.32;30.82;98207.03;5124707;27;20096;-78
2022/08/14 09:43:30;;;;;;;2.55;1.83;;;;;;;28.63;30.81;98211.69;5114217;27;20058;-78
2022/08/14 09:45:58;;;;;;;1.83;1.70;;;;;;;28.43;30.78;98196.34;5110810;27;20051;-78
2022/08/14 09:48:28;;;;;;;2.55;1.98;;;;;;;28.67;30.71;98200.69;5114880;27;20043;-79
2022/08/14 09:50:56;;;;;;;2.47;1.98;;;;;;;28.59;30.35;98205.09;5118923;27;20101;-79
2022/08/14 09:53:59;;;;;;;2.58;1.70;;;;;;;28.64;30.88;98190.16;5113287;27;20055;-79
2022/08/14 09:56:25;;;;;;;3.80;1.58;;;;;;;28.71;30.27;98205.28;5113168;27;20047;-79
2022/08/14 09:58:53;;;;;;;4.60;2.40;;;;;;;28.72;29.98;98204.13;5113966;27;20058;-79
2022/08/14 10:01:21;;;;;;;2.10;1.65;;;;;;;28.83;30.65;98187.03;5111436;27;20400;-79
2022/08/14 10:03:50;;;;;;;4.45;1.65;;;;;;;28.94;30.55;98203.16;5113096;27;20047;-79
2022/08/14 10:06:18;;;;;;;4.32;1.80;;;;;;;29.21;29.52;98203.16;5115938;27;20039;-79
2022/08/14 10:08:48;;;;;;;3.30;1.67;;;;;;;29.05;30.14;98175.66;5118256;27;20494;-79
2022/08/14 10:11:18;;;;;;;3.05;2.00;;;;;;;29.32;29.29;98181.25;5122228;27;20051;-79
2022/08/14 10:13:48;;;;;;;5.13;2.30;;;;;;;29.40;29.15;98177.56;5114260;27;20447;-79
2022/08/14 10:16:16;;;;;;;3.72;2.22;;;;;;;29.54;29.13;98183.81;5116885;27;20504;-79
2022/08/14 10:18:42;;;;;;;2.03;1.83;;;;;;;29.64;28.86;98179.81;5123509;27;20360;-79
2022/08/14 10:21:16;;;;;;;2.25;1.65;;;;;;;29.52;28.88;98157.28;5114517;27;20050;-79
2022/08/14 10:23:48;;;;;;;4.22;1.88;;;;;;;29.79;28.61;98170.03;5120048;27;20046;-78
2022/08/14 10:26:17;;;;;;;3.30;1.90;;;;;;;29.69;28.34;98148.81;5126287;27;20393;-78
2022/08/14 10:28:45;;;;;;;2.10;1.87;;;;;;;29.58;28.74;98136.34;5130338;27;20047;-78
2022/08/14 10:31:24;;;;;;;3.33;1.73;;;;;;;29.75;29.06;98152.25;5117672;28;20491;-79
2022/08/14 10:34:02;;;;;;;4.43;2.20;;;;;;;30.05;28.50;98158.72;5110970;28;20039;-79
2022/08/14 10:36:31;;;;;;;5.07;1.90;;;;;;;30.03;28.74;98126.59;5119505;28;20415;-79
2022/08/14 10:39:02;;;;;;;5.15;2.28;;;;;;;30.35;28.16;98139.06;5123830;28;20047;-78
2022/08/14 10:41:40;;;;;;;2.60;1.92;;;;;;;30.27;27.46;98139.94;5119718;27;20452;-78
2022/08/14 10:44:09;;;;;;;3.05;2.20;;;;;;;30.29;28.21;98123.59;5132333;28;20134;-78
2022/08/14 10:46:43;;;;;;;2.13;1.90;;;;;;;30.33;28.37;98090.94;5124571;27;20048;-78
2022/08/14 10:49:19;;;;;;;2.10;1.90;;;;;;;30.21;27.57;98076.84;5109977;28;20047;-79
2022/08/14 10:52:03;;;;;;;2.58;2.00;;;;;;;30.48;27.96;98078.31;5122231;27;20054;-79
2022/08/14 10:54:32;;;;;;;4.75;1.92;;;;;;;30.37;27.17;98097.50;5123666;27;20059;-79
2022/08/14 10:57:11;;;;;;;2.17;1.90;;;;;;;30.29;27.34;98074.00;5127338;27;20055;-79
2022/08/14 10:59:45;;;;;;;2.30;2.10;;;;;;;30.16;27.76;98077.88;5117048;27;20044;-79
2022/08/14 11:02:28;;;;;;;2.28;2.08;;;;;;;30.25;28.41;98095.44;5116024;27;20044;-78
2022/08/14 11:05:07;;;;;;;3.20;2.30;;;;;;;30.23;28.25;98082.94;5120544;27;20043;-78
2022/08/14 11:07:38;;;;;;;4.88;2.40;;;;;;;30.45;27.84;98051.75;5124797;27;20051;-79
2022/08/14 11:10:08;;;;;;;7.93;2.72;;;;;;;30.81;27.05;98083.91;5122790;27;20067;-78
2022/08/14 11:12:46;;;;;;;3.80;2.00;;;;;;;31.00;26.46;98074.16;5120136;27;20448;-78
2022/08/14 11:15:15;;;;;;;3.03;2.30;;;;;;;31.20;26.32;98076.09;5126155;27;20550;-78
2022/08/14 11:17:44;;;;;;;2.60;1.80;;;;;;;31.33;26.05;98067.69;5124969;27;20387;-79
2022/08/14 11:20:11;;;;;;;2.15;1.95;;;;;;;31.73;25.84;98073.44;5120039;27;20104;-78
2022/08/14 11:22:41;;;;;;;2.53;2.33;;;;;;;31.66;25.31;98062.00;5135116;27;20051;-79
2022/08/14 11:25:10;;;;;;;8.85;2.58;;;;;;;31.53;25.50;98080.81;5121992;27;20483;-79
2022/08/14 11:27:38;;;;;;;;;;;;;;;31.62;25.37;98077.91;5121902;27;20482;-78
2022/08/14 11:30:07;;;;;;;5.47;2.92;;;;;;;31.46;25.38;98052.47;5127665;27;20143;-79
2022/08/14 11:32:35;;;;;;;1.95;1.85;;;;;;;31.52;24.71;98050.25;5128096;27;20130;-79
2022/08/14 11:35:03;;;;;;;3.25;2.08;;;;;;;31.61;25.08;98070.66;5125217;27;20525;-79
2022/08/14 11:37:32;;;;;;;2.75;2.17;;;;;;;31.75;25.19;98059.88;5126017;27;20509;-79
2022/08/14 11:39:59;;;;;;;2.28;2.08;;;;;;;32.00;24.82;98076.69;5127203;27;20047;-79
2022/08/14 11:42:28;;;;;;;2.38;2.17;;;;;;;31.68;24.60;98047.59;5126923;27;20055;-79
2022/08/14 11:44:57;;;;;;;3.83;2.17;;;;;;;31.93;25.40;98079.28;5117376;27;20051;-78
2022/08/14 11:47:24;;;;;;;;;;;;;;;32.08;25.18;98077.75;5120201;27;20051;-78
2022/08/14 11:49:50;;;;;;;3.72;2.20;;;;;;;32.04;24.77;98060.78;5127060;27;19920;-78
2022/08/14 11:52:19;;;;;;;2.40;2.20;;;;;;;32.42;24.71;98073.56;5126306;27;20494;-78
2022/08/14 11:54:56;;;;;;;3.75;2.35;;;;;;;32.18;24.66;98065.22;5122925;27;20043;-78
2022/08/14 11:57:22;;;;;;;2.47;2.17;;;;;;;32.28;24.38;98048.69;5124871;27;20496;-78